Time;durP1;ratioP1;P1;durP2;ratioP2;P2;SDS_P1;SDS_P2;PMS_P1;PMS_P2;Temp;Humidity;BMP_temperature;BMP_pressure;BME280_temperature;BME280_humidity;BME280_pressure;Samples;Min_cycle;Max_cycle;Signal;HPM_P1;HPM_P2
2022/07/29 00:00:51;;;;;;;2.92;2.72;;;;;;;19.48;89.23;96490.16;5045532;28;20211;-57
2022/07/29 00:03:17;;;;;;;2.88;2.78;;;;;;;19.44;89.57;96483.53;5045918;28;20643;-57
2022/07/29 00:05:44;;;;;;;2.78;2.58;;;;;;;19.30;90.93;96487.16;5045133;28;20666;-58
2022/07/29 00:08:11;;;;;;;3.10;2.90;;;;;;;19.26;91.96;96484.06;5044440;28;20690;-57
2022/07/29 00:10:37;;;;;;;4.63;2.70;;;;;;;19.14;92.87;96485.66;5045651;28;20231;-57
2022/07/29 00:13:04;;;;;;;2.72;2.58;;;;;;;19.11;92.41;96477.19;5045325;28;20294;-57
2022/07/29 00:15:30;;;;;;;2.80;2.70;;;;;;;19.17;91.95;96473.69;5045064;28;20307;-57
2022/07/29 00:17:58;;;;;;;2.92;2.72;;;;;;;19.17;92.86;96476.38;5044519;28;20242;-57
2022/07/29 00:20:25;;;;;;;2.92;2.63;;;;;;;19.10;93.16;96478.19;5044859;28;20235;-56
2022/07/29 00:22:53;;;;;;;2.58;2.47;;;;;;;19.10;93.21;96478.19;5046363;28;20234;-57
2022/07/29 00:25:19;;;;;;;2.75;2.60;;;;;;;19.01;94.26;96471.38;5045426;28;20219;-57
2022/07/29 00:27:46;;;;;;;2.72;2.53;;;;;;;19.01;94.26;96472.22;5045270;28;20243;-56
2022/07/29 00:30:13;;;;;;;2.83;2.67;;;;;;;18.98;94.39;96471.78;5045873;28;20211;-57
2022/07/29 00:32:40;;;;;;;3.20;2.60;;;;;;;19.02;94.82;96473.03;5046434;28;20588;-57
2022/07/29 00:37:53;;;;;;;3.00;2.80;;;;;;;19.10;92.88;96472.84;5046052;28;20202;-57
2022/07/29 00:40:20;;;;;;;2.90;2.70;;;;;;;19.06;94.41;96476.97;5044546;28;20724;-59
2022/07/29 00:42:47;;;;;;;2.78;2.63;;;;;;;19.03;95.24;96466.63;5046801;28;20245;-57
2022/07/29 00:45:15;;;;;;;3.40;3.10;;;;;;;19.03;94.80;96463.94;5045101;28;20318;-57
2022/07/29 00:47:41;;;;;;;2.95;2.75;;;;;;;19.09;95.47;96458.63;5044450;28;20262;-57
2022/07/29 00:50:11;;;;;;;2.80;2.60;;;;;;;19.12;94.91;96458.22;5045629;28;20282;-56
2022/07/29 00:52:39;;;;;;;3.05;2.70;;;;;;;19.17;93.96;96447.72;5044870;28;20647;-57
2022/07/29 00:55:08;;;;;;;3.00;2.80;;;;;;;19.13;95.35;96445.66;5044725;28;20254;-57
2022/07/29 00:57:35;;;;;;;3.20;2.88;;;;;;;19.16;95.16;96443.41;5045216;28;20208;-58
2022/07/29 01:00:02;;;;;;;3.00;2.80;;;;;;;19.30;93.12;96438.91;5044656;28;20632;-58
2022/07/29 01:02:29;;;;;;;3.83;3.10;;;;;;;19.20;95.01;96443.84;5046301;28;20294;-56
2022/07/29 01:04:56;;;;;;;3.05;2.85;;;;;;;19.24;94.52;96442.38;5045340;28;20775;-57
2022/07/29 01:07:25;;;;;;;2.78;2.67;;;;;;;19.17;95.51;96439.69;5046446;28;20211;-56
2022/07/29 01:09:53;;;;;;;3.38;3.17;;;;;;;19.22;95.05;96431.03;5047144;28;20196;-57
2022/07/29 01:12:23;;;;;;;3.55;2.75;;;;;;;19.26;94.87;96437.66;5056458;28;20253;-56
2022/07/29 01:14:50;;;;;;;2.83;2.63;;;;;;;19.32;93.66;96444.88;5063530;28;20187;-55
2022/07/29 01:17:22;;;;;;;2.88;2.63;;;;;;;19.30;95.36;96452.31;5069647;28;20207;-62
2022/07/29 01:19:53;;;;;;;3.13;2.60;;;;;;;19.31;94.88;96436.00;5071936;28;20190;-58
2022/07/29 01:22:28;;;;;;;3.17;2.88;;;;;;;19.39;93.81;96443.03;5070034;28;20167;-56
2022/07/29 01:25:17;;;;;;;3.25;2.97;;;;;;;19.36;94.88;96438.09;5070656;28;20207;-57
2022/07/29 01:27:55;;;;;;;2.70;2.50;;;;;;;19.38;94.49;96436.03;5067364;28;20183;-58
2022/07/29 01:30:25;;;;;;;2.85;2.70;;;;;;;19.37;94.79;96439.75;5061763;28;20215;-58
2022/07/29 01:32:56;;;;;;;4.07;3.17;;;;;;;19.37;95.45;96439.75;5062958;28;20203;-57
2022/07/29 01:35:24;;;;;;;3.45;3.22;;;;;;;19.35;95.33;96433.75;5048694;28;20286;-59
2022/07/29 01:37:56;;;;;;;3.13;2.92;;;;;;;19.32;95.42;96437.66;5054426;28;20211;-58
2022/07/29 01:40:25;;;;;;;2.95;2.72;;;;;;;19.34;95.71;96434.78;5050856;28;20224;-58
2022/07/29 01:42:53;;;;;;;2.67;2.47;;;;;;;19.35;94.87;96431.06;5044508;28;20587;-58
2022/07/29 01:45:24;;;;;;;2.83;2.63;;;;;;;19.37;93.75;96431.69;5043499;28;20667;-57
2022/07/29 01:47:55;;;;;;;2.70;2.50;;;;;;;19.33;94.07;96433.13;5042528;28;20624;-58
2022/07/29 01:50:26;;;;;;;2.92;2.72;;;;;;;19.26;94.53;96426.94;5043399;28;20297;-58
2022/07/29 01:52:55;;;;;;;2.85;2.65;;;;;;;19.22;95.13;96431.03;5043675;28;20286;-57
2022/07/29 01:55:23;;;;;;;2.70;2.50;;;;;;;19.17;95.71;96430.81;5043377;28;20759;-57
2022/07/29 01:57:51;;;;;;;2.97;2.78;;;;;;;19.14;95.60;96433.88;5042678;28;20302;-58
2022/07/29 02:00:18;;;;;;;2.85;2.65;;;;;;;19.08;95.57;96437.38;5042876;28;20636;-58
2022/07/29 02:02:47;;;;;;;2.70;2.50;;;;;;;19.08;95.01;96440.06;5042360;28;20254;-56
2022/07/29 02:05:16;;;;;;;2.50;2.40;;;;;;;19.06;95.35;96444.81;5043044;28;20317;-57
2022/07/29 02:07:44;;;;;;;2.88;2.67;;;;;;;18.95;95.18;96442.69;5042298;28;20222;-57
2022/07/29 02:10:11;;;;;;;3.08;2.40;;;;;;;18.94;95.55;96441.03;5042391;28;20211;-58
2022/07/29 02:12:39;;;;;;;3.15;2.60;;;;;;;18.84;95.88;96452.97;5042913;28;20290;-58
2022/07/29 02:15:08;;;;;;;3.03;2.42;;;;;;;18.96;93.73;96447.00;5042717;28;20294;-57
2022/07/29 02:17:40;;;;;;;2.92;2.63;;;;;;;18.84;94.53;96444.94;5042525;28;20277;-55
2022/07/29 02:20:10;;;;;;;3.22;2.50;;;;;;;18.73;95.74;96448.16;5043099;28;20207;-56
2022/07/29 02:22:39;;;;;;;4.18;2.45;;;;;;;18.61;96.50;96452.41;5042525;28;20207;-54
2022/07/29 02:25:07;;;;;;;2.75;2.65;;;;;;;18.58;96.76;96452.81;5043845;28;20225;-56
2022/07/29 02:27:34;;;;;;;5.38;2.55;;;;;;;18.55;96.80;96444.34;5042901;28;20702;-58
2022/07/29 02:30:03;;;;;;;2.63;2.47;;;;;;;18.49;97.79;96437.91;5043382;28;20294;-57
2022/07/29 02:32:30;;;;;;;2.90;2.70;;;;;;;18.57;96.21;96436.94;5042459;28;20243;-57
2022/07/29 02:34:57;;;;;;;3.22;2.90;;;;;;;18.57;95.24;96440.44;5041832;28;20217;-57
2022/07/29 02:37:26;;;;;;;3.05;2.80;;;;;;;18.58;95.46;96435.91;5042016;28;20800;-56
2022/07/29 02:39:53;;;;;;;2.72;2.63;;;;;;;18.56;95.74;96425.41;5042039;28;20566;-57
2022/07/29 02:42:22;;;;;;;2.80;2.60;;;;;;;18.56;96.28;96436.13;5042530;28;20203;-57
2022/07/29 02:44:49;;;;;;;2.83;2.63;;;;;;;18.51;96.97;96418.97;5041520;28;20755;-57
2022/07/29 02:47:19;;;;;;;3.40;2.70;;;;;;;18.49;97.04;96429.88;5042121;28;20256;-56
2022/07/29 02:49:52;;;;;;;2.60;2.40;;;;;;;18.62;95.12;96432.66;5042282;28;20199;-57
2022/07/29 02:52:21;;;;;;;2.80;2.70;;;;;;;18.59;96.27;96435.72;5042223;28;20746;-59
2022/07/29 02:54:53;;;;;;;2.72;2.63;;;;;;;18.58;97.64;96435.91;5042303;28;20294;-59
2022/07/29 02:57:23;;;;;;;4.93;2.97;;;;;;;18.52;98.69;96434.03;5041481;28;20227;-58
2022/07/29 02:59:51;;;;;;;3.00;2.80;;;;;;;18.53;98.32;96433.81;5042507;28;20293;-58
2022/07/29 03:02:18;;;;;;;2.60;2.40;;;;;;;18.52;98.45;96434.03;5042081;28;20282;-58
2022/07/29 03:04:45;;;;;;;2.95;2.75;;;;;;;18.57;98.50;96440.44;5042563;28;20229;-57
2022/07/29 03:07:14;;;;;;;2.72;2.53;;;;;;;18.70;95.93;96445.88;5041461;28;20230;-58
2022/07/29 03:09:42;;;;;;;3.13;2.80;;;;;;;18.66;97.04;96457.19;5041221;28;20944;-59
2022/07/29 03:12:11;;;;;;;2.30;2.20;;;;;;;18.65;97.08;96460.88;5041970;28;20204;-59
2022/07/29 03:14:39;;;;;;;2.45;2.35;;;;;;;18.68;97.58;96466.66;5041760;28;20712;-55
2022/07/29 03:17:06;;;;;;;2.95;2.42;;;;;;;18.69;97.38;96472.84;5041847;28;20246;-55
2022/07/29 03:19:34;;;;;;;3.38;2.67;;;;;;;18.69;98.69;96467.50;5041582;28;20673;-55
2022/07/29 03:22:00;;;;;;;2.60;2.40;;;;;;;18.70;99.43;96464.63;5041619;28;20222;-57
2022/07/29 03:24:29;;;;;;;4.93;2.88;;;;;;;18.71;100.00;96468.94;5041561;28;20667;-57
2022/07/29 03:26:56;;;;;;;2.85;2.47;;;;;;;18.68;100.00;96461.31;5041857;28;20235;-55
2022/07/29 03:29:25;;;;;;;2.60;2.50;;;;;;;18.76;100.00;96458.47;5041839;28;20292;-56
2022/07/29 03:31:52;;;;;;;2.55;2.35;;;;;;;18.73;100.00;96464.25;5045030;28;20267;-55
2022/07/29 03:34:19;;;;;;;3.08;2.22;;;;;;;18.72;100.00;96467.94;5059740;28;20191;-56
2022/07/29 03:36:47;;;;;;;2.78;2.42;;;;;;;18.76;100.00;96471.88;5054282;28;20218;-54
2022/07/29 03:39:16;;;;;;;3.03;2.65;;;;;;;18.79;100.00;96476.84;5048269;28;20211;-55
2022/07/29 03:41:45;;;;;;;2.85;2.60;;;;;;;18.74;100.00;96476.59;5045384;28;20195;-56
2022/07/29 03:44:12;;;;;;;3.20;2.80;;;;;;;18.72;100.00;96467.94;5045809;28;20214;-55
2022/07/29 03:46:40;;;;;;;3.00;2.80;;;;;;;18.71;100.00;96460.91;5045498;28;20294;-54
2022/07/29 03:49:08;;;;;;;2.97;2.80;;;;;;;18.70;100.00;96448.56;5045382;28;20258;-55
2022/07/29 03:51:36;;;;;;;3.08;2.80;;;;;;;18.72;100.00;96449.19;5045097;28;20203;-55
2022/07/29 03:54:03;;;;;;;2.83;2.63;;;;;;;18.80;100.00;96449.03;5046071;28;20630;-56
2022/07/29 03:56:30;;;;;;;2.75;2.65;;;;;;;18.82;100.00;96438.94;5045132;28;20246;-55
2022/07/29 03:58:57;;;;;;;3.03;2.85;;;;;;;18.83;100.00;96445.13;5045294;28;20211;-56
2022/07/29 04:01:24;;;;;;;3.17;2.95;;;;;;;18.82;100.00;96446.97;5044907;28;20268;-57
2022/07/29 04:03:52;;;;;;;2.97;2.70;;;;;;;18.85;100.00;96449.25;5045588;28;20294;-55
2022/07/29 04:06:20;;;;;;;3.13;2.88;;;;;;;18.87;100.00;96455.25;5044448;28;20316;-55
2022/07/29 04:08:47;;;;;;;2.97;2.78;;;;;;;18.85;100.00;96449.25;5044942;28;20267;-55
2022/07/29 04:11:14;;;;;;;2.95;2.75;;;;;;;18.88;100.00;96461.44;5045527;28;20215;-56
2022/07/29 04:13:40;;;;;;;3.05;2.85;;;;;;;18.86;100.00;96452.75;5045194;28;20300;-57
2022/07/29 04:16:07;;;;;;;2.45;2.30;;;;;;;18.83;100.00;96443.25;5045010;28;20249;-55
2022/07/29 04:18:34;;;;;;;3.35;3.05;;;;;;;18.78;100.00;96443.03;5045466;28;20268;-56
2022/07/29 04:21:03;;;;;;;3.03;2.72;;;;;;;18.80;100.00;96449.03;5045922;28;20196;-55
2022/07/29 04:23:32;;;;;;;3.08;2.83;;;;;;;18.81;100.00;96449.84;5045221;28;20202;-55
2022/07/29 04:26:00;;;;;;;2.20;2.10;;;;;;;18.89;100.00;96455.84;5044297;28;20289;-56
2022/07/29 04:28:26;;;;;;;3.65;2.75;;;;;;;18.91;100.00;96462.88;5044592;28;20215;-55
2022/07/29 04:30:53;;;;;;;2.60;2.40;;;;;;;18.92;100.00;96472.59;5044496;28;20207;-55
2022/07/29 04:33:19;;;;;;;2.50;2.40;;;;;;;18.91;100.00;96466.38;5044346;28;20307;-57
2022/07/29 04:35:46;;;;;;;2.92;2.72;;;;;;;18.91;100.00;96461.03;5044554;28;20207;-56
2022/07/29 04:38:14;;;;;;;2.42;2.30;;;;;;;18.89;100.00;96458.53;5044427;28;20243;-56
2022/07/29 04:40:41;;;;;;;2.47;2.35;;;;;;;18.86;100.00;96458.09;5044258;28;20211;-56
2022/07/29 04:43:07;;;;;;;2.88;2.67;;;;;;;18.87;100.00;96455.25;5044052;28;20305;-55
2022/07/29 04:45:34;;;;;;;2.70;2.55;;;;;;;18.93;100.00;96455.44;5043100;28;20231;-56
2022/07/29 04:48:01;;;;;;;2.55;2.40;;;;;;;18.97;100.00;96451.34;5043603;28;20238;-56
2022/07/29 04:50:28;;;;;;;2.95;2.55;;;;;;;18.92;100.00;96451.16;5045380;28;20610;-55
2022/07/29 04:52:54;;;;;;;2.28;2.17;;;;;;;18.91;100.00;96452.16;5043664;28;20192;-55
2022/07/29 04:55:22;;;;;;;2.55;2.42;;;;;;;18.86;100.00;96452.75;5044997;28;20207;-56
2022/07/29 04:57:50;;;;;;;2.65;2.55;;;;;;;18.87;100.00;96455.25;5044143;28;20741;-54
2022/07/29 05:00:17;;;;;;;2.33;2.22;;;;;;;18.84;100.00;96450.28;5044659;28;20208;-54
2022/07/29 05:02:44;;;;;;;2.58;2.38;;;;;;;18.86;100.00;96455.44;5044084;28;20196;-56
2022/07/29 05:05:11;;;;;;;2.38;2.22;;;;;;;18.94;100.00;96459.78;5044043;28;20321;-54
2022/07/29 05:07:37;;;;;;;2.67;2.58;;;;;;;18.91;100.00;96466.38;5043659;28;20291;-56
2022/07/29 05:10:05;;;;;;;2.63;2.42;;;;;;;18.96;100.00;96479.16;5044239;28;20254;-56
2022/07/29 05:12:34;;;;;;;3.75;2.80;;;;;;;18.93;100.00;96469.69;5044615;28;20249;-56
2022/07/29 05:15:01;;;;;;;2.80;2.70;;;;;;;18.92;100.00;96461.88;5043681;28;20645;-56
2022/07/29 05:17:27;;;;;;;2.90;2.70;;;;;;;18.95;100.00;96461.47;5043434;28;20551;-55
2022/07/29 05:19:54;;;;;;;4.00;2.75;;;;;;;18.98;100.00;96463.72;5043736;28;20204;-55
2022/07/29 05:22:21;;;;;;;2.70;2.50;;;;;;;18.94;100.00;96467.84;5043293;28;20230;-54
2022/07/29 05:24:48;;;;;;;2.80;2.60;;;;;;;18.96;100.00;96473.81;5044207;28;20286;-55
2022/07/29 05:27:14;;;;;;;3.00;2.80;;;;;;;18.97;100.00;96475.47;5043305;28;20199;-55
2022/07/29 05:29:42;;;;;;;3.15;2.67;;;;;;;19.00;100.00;96480.44;5059001;28;20225;-56
2022/07/29 05:32:09;;;;;;;5.40;2.90;;;;;;;19.05;100.00;96480.66;5063177;28;20350;-56
2022/07/29 05:34:36;;;;;;;2.85;2.65;;;;;;;19.07;100.00;96476.75;5046205;28;20235;-54
2022/07/29 05:37:02;;;;;;;3.25;2.88;;;;;;;19.18;100.00;96483.41;5056676;28;20204;-56
2022/07/29 05:39:29;;;;;;;3.10;2.80;;;;;;;19.27;100.00;96487.56;5059340;28;20199;-56
2022/07/29 05:41:56;;;;;;;3.13;2.70;;;;;;;19.35;100.00;96490.06;5054614;28;20207;-55
2022/07/29 05:44:23;;;;;;;2.78;2.58;;;;;;;19.36;100.00;96495.22;5054090;28;20264;-56
2022/07/29 05:46:51;;;;;;;3.00;2.80;;;;;;;19.49;100.00;96482.91;5052578;28;20327;-55
2022/07/29 05:49:17;;;;;;;2.67;2.58;;;;;;;19.61;100.00;96484.81;5043817;28;20255;-54
2022/07/29 05:51:44;;;;;;;3.90;2.28;;;;;;;19.68;100.00;96476.78;5042872;28;20238;-55
2022/07/29 05:54:12;;;;;;;2.80;2.58;;;;;;;19.76;100.00;96477.41;5042971;28;20245;-56
2022/07/29 05:56:39;;;;;;;2.47;2.30;;;;;;;19.87;100.00;96484.84;5043587;28;20233;-55
2022/07/29 05:59:06;;;;;;;2.40;2.20;;;;;;;19.95;100.00;96480.31;5043582;28;20296;-55
2022/07/29 06:01:32;;;;;;;2.53;2.33;;;;;;;20.06;99.71;96477.84;5042837;28;20214;-55
2022/07/29 06:04:00;;;;;;;5.38;3.00;;;;;;;20.09;97.89;96493.53;5042692;28;20709;-55
2022/07/29 06:06:28;;;;;;;3.30;3.00;;;;;;;20.13;100.00;96493.94;5044522;28;20611;-56
2022/07/29 06:08:55;;;;;;;3.90;2.67;;;;;;;20.16;99.30;96494.38;5044488;28;20202;-55
2022/07/29 06:11:21;;;;;;;4.93;3.15;;;;;;;20.22;99.03;96511.53;5042840;28;20286;-55
2022/07/29 06:13:48;;;;;;;23.20;5.43;;;;;;;20.30;99.10;96506.78;5042717;28;20320;-54
2022/07/29 06:16:14;;;;;;;14.13;3.80;;;;;;;20.30;97.49;96504.09;5042955;28;20206;-56
2022/07/29 06:18:41;;;;;;;4.45;3.25;;;;;;;20.40;98.02;96519.81;5043550;28;20196;-54
2022/07/29 06:21:10;;;;;;;2.70;2.50;;;;;;;20.44;96.14;96518.34;5042847;28;20306;-55
2022/07/29 06:23:38;;;;;;;2.80;2.60;;;;;;;20.47;96.44;96530.56;5042517;28;20204;-55
2022/07/29 06:26:04;;;;;;;5.05;2.95;;;;;;;20.43;96.36;96532.84;5043188;28;20239;-55
2022/07/29 06:28:32;;;;;;;2.80;2.60;;;;;;;20.35;97.33;96535.72;5042841;28;20307;-54
2022/07/29 06:30:59;;;;;;;2.88;2.53;;;;;;;20.34;99.00;96539.44;5043948;28;20223;-55
2022/07/29 06:33:26;;;;;;;5.82;2.75;;;;;;;20.34;98.88;96553.69;5043688;28;20299;-55
2022/07/29 06:35:52;;;;;;;2.80;2.60;;;;;;;20.32;98.05;96550.41;5045237;28;20235;-55
2022/07/29 06:38:20;;;;;;;3.45;3.25;;;;;;;20.30;98.15;96560.50;5043383;28;20253;-55
2022/07/29 06:41:03;;;;;;;3.50;3.30;;;;;;;20.30;97.44;96567.72;5045632;28;20195;-56
2022/07/29 06:43:33;;;;;;;2.83;2.63;;;;;;;20.27;94.97;96574.34;5045605;28;20260;-54
2022/07/29 06:46:05;;;;;;;3.78;3.47;;;;;;;20.24;94.70;96581.94;5046524;28;20230;-54
2022/07/29 06:48:32;;;;;;;7.03;6.32;;;;;;;20.16;96.99;96596.41;5044833;28;20318;-56
2022/07/29 06:51:01;;;;;;;15.48;14.07;;;;;;;20.12;98.97;96594.34;5046966;28;21433;-55
2022/07/29 06:53:30;;;;;;;8.60;7.80;;;;;;;20.02;99.91;96586.66;5044741;28;20207;-55
2022/07/29 06:55:57;;;;;;;5.70;5.07;;;;;;;19.99;98.69;96586.25;5048736;28;20286;-55
2022/07/29 06:58:25;;;;;;;4.97;3.20;;;;;;;19.89;98.28;96578.59;5046943;28;20233;-55
2022/07/29 07:00:52;;;;;;;3.28;3.00;;;;;;;19.86;99.38;96579.81;5047184;28;20203;-55
2022/07/29 07:03:19;;;;;;;3.38;3.05;;;;;;;19.80;99.62;96561.81;5047206;28;20211;-56
2022/07/29 07:05:46;;;;;;;3.50;3.30;;;;;;;19.67;100.00;96553.75;5045284;28;20668;-55
2022/07/29 07:08:15;;;;;;;4.40;4.10;;;;;;;19.66;100.00;96564.69;5048525;28;20199;-55
2022/07/29 07:10:43;;;;;;;6.95;3.30;;;;;;;19.56;100.00;96577.63;5051540;28;20202;-56
2022/07/29 07:13:10;;;;;;;3.35;3.05;;;;;;;19.47;100.00;96574.31;5054205;28;20261;-56
2022/07/29 07:15:37;;;;;;;3.40;3.20;;;;;;;19.37;100.00;96574.66;5050815;28;20222;-54
2022/07/29 07:18:05;;;;;;;3.97;3.78;;;;;;;19.33;100.00;96578.75;5050086;28;20291;-55
2022/07/29 07:20:32;;;;;;;3.70;3.40;;;;;;;19.33;100.00;96567.22;5048996;28;20207;-54
2022/07/29 07:22:59;;;;;;;3.58;3.28;;;;;;;19.31;100.00;96566.56;5051658;28;20215;-55
2022/07/29 07:25:26;;;;;;;3.08;2.88;;;;;;;19.36;100.00;96569.47;5049207;28;20676;-55
2022/07/29 07:27:53;;;;;;;3.58;3.25;;;;;;;19.38;100.00;96556.69;5056694;28;20276;-56
2022/07/29 07:30:21;;;;;;;4.18;3.30;;;;;;;19.43;100.00;96543.56;5053702;28;20257;-55
2022/07/29 07:32:47;;;;;;;3.50;3.30;;;;;;;19.50;100.00;96546.25;5048892;28;20231;-56
2022/07/29 07:35:14;;;;;;;3.35;3.10;;;;;;;19.53;100.00;96546.69;5052848;28;20210;-56
2022/07/29 07:37:41;;;;;;;4.20;3.47;;;;;;;19.57;100.00;96550.63;5054529;28;20669;-55
2022/07/29 07:40:09;;;;;;;3.42;3.22;;;;;;;19.67;100.00;96551.06;5050237;28;20282;-55
2022/07/29 07:42:36;;;;;;;5.80;4.32;;;;;;;19.73;100.00;96552.13;5048960;28;20257;-56
2022/07/29 07:45:05;;;;;;;4.32;3.88;;;;;;;19.77;100.00;96559.56;5048645;28;20303;-56
2022/07/29 07:47:33;;;;;;;3.92;3.63;;;;;;;19.78;100.00;96571.94;5047796;28;20324;-55
2022/07/29 07:50:00;;;;;;;5.63;3.50;;;;;;;19.74;100.00;96583.28;5048117;28;20218;-55
2022/07/29 07:52:26;;;;;;;4.88;3.90;;;;;;;19.77;100.00;96585.56;5049790;28;20238;-54
2022/07/29 07:54:53;;;;;;;4.95;3.42;;;;;;;19.72;100.00;96586.19;5048568;28;20286;-56
2022/07/29 07:57:20;;;;;;;3.85;3.10;;;;;;;19.66;100.00;96588.84;5050414;28;20287;-56
2022/07/29 07:59:47;;;;;;;4.22;3.50;;;;;;;19.64;100.00;96599.75;5050863;28;20203;-56
2022/07/29 08:02:15;;;;;;;7.15;6.53;;;;;;;19.66;100.00;96594.22;5064346;28;20222;-56
2022/07/29 08:04:42;;;;;;;3.92;3.53;;;;;;;19.57;100.00;96580.13;5061581;28;20222;-56
2022/07/29 08:07:09;;;;;;;3.20;3.00;;;;;;;19.44;100.00;96595.34;5056878;28;20234;-56
2022/07/29 08:09:36;;;;;;;3.47;3.00;;;;;;;19.45;100.00;96597.81;5053624;28;20268;-55
2022/07/29 08:12:05;;;;;;;3.70;3.40;;;;;;;19.31;100.00;96593.38;5051296;28;20238;-56
2022/07/29 08:14:32;;;;;;;5.32;3.15;;;;;;;19.26;100.00;96577.06;5051056;28;20767;-55
2022/07/29 08:16:59;;;;;;;5.45;3.25;;;;;;;19.21;100.00;96569.63;5050050;28;20211;-55
2022/07/29 08:19:27;;;;;;;5.68;3.83;;;;;;;19.23;100.00;96582.84;5047642;28;20188;-56
2022/07/29 08:21:54;;;;;;;4.72;3.95;;;;;;;19.16;100.00;96585.47;5046285;28;20199;-55
2022/07/29 08:27:05;;;;;;;3.72;3.42;;;;;;;19.27;100.00;96584.09;5047399;28;20544;-55
2022/07/29 08:29:31;;;;;;;3.90;3.60;;;;;;;19.30;100.00;96595.25;5047135;28;20305;-56
2022/07/29 08:31:58;;;;;;;4.00;3.70;;;;;;;19.37;100.00;96609.53;5047106;28;20298;-56
2022/07/29 08:34:24;;;;;;;4.25;3.95;;;;;;;19.49;100.00;96615.16;5049030;28;20231;-55
2022/07/29 08:36:52;;;;;;;5.05;4.45;;;;;;;19.49;100.00;96612.47;5048730;28;20664;-56
2022/07/29 08:39:19;;;;;;;3.80;3.50;;;;;;;19.51;100.00;96612.28;5049520;28;20235;-56
2022/07/29 08:41:46;;;;;;;3.78;3.47;;;;;;;19.52;100.00;96600.53;5064886;28;20187;-56
2022/07/29 08:44:13;;;;;;;3.70;3.40;;;;;;;19.58;100.00;96605.94;5072295;28;20210;-56
2022/07/29 08:46:39;;;;;;;3.50;3.20;;;;;;;19.66;100.00;96603.06;5069241;28;20203;-57
2022/07/29 08:49:06;;;;;;;4.43;3.42;;;;;;;19.80;100.00;96601.28;5072374;28;20242;-56
2022/07/29 08:51:35;;;;;;;4.13;3.47;;;;;;;19.96;100.00;96610.81;5072682;28;20271;-56
2022/07/29 08:54:03;;;;;;;4.45;3.53;;;;;;;20.20;100.00;96615.59;5057281;28;20187;-56
2022/07/29 08:56:30;;;;;;;3.95;3.60;;;;;;;20.88;100.00;96617.16;5053087;28;20199;-55
2022/07/29 08:58:58;;;;;;;3.85;3.50;;;;;;;21.58;100.00;96615.56;5053510;28;20224;-56
2022/07/29 09:01:26;;;;;;;3.85;3.60;;;;;;;22.18;100.00;96619.69;5044540;28;20234;-57
2022/07/29 09:03:56;;;;;;;3.70;3.40;;;;;;;22.47;90.83;96619.09;5045462;28;20238;-56
2022/07/29 09:06:23;;;;;;;4.22;3.00;;;;;;;22.69;92.79;96617.72;5043910;28;20302;-56
2022/07/29 09:08:50;;;;;;;4.20;2.78;;;;;;;22.78;91.71;96629.88;5045234;28;20334;-56
2022/07/29 09:11:18;;;;;;;3.05;2.85;;;;;;;22.85;88.27;96623.63;5043491;28;20622;-56
2022/07/29 09:13:44;;;;;;;3.63;3.33;;;;;;;22.99;92.61;96619.75;5044802;28;20230;-56
2022/07/29 09:16:12;;;;;;;4.10;3.00;;;;;;;23.09;89.99;96617.38;5044070;28;20286;-57
2022/07/29 09:18:40;;;;;;;3.67;3.33;;;;;;;22.91;88.14;96622.72;5044833;28;20207;-58
2022/07/29 09:24:03;;;;;;;2.55;2.35;;;;;;;23.21;83.17;96615.59;5043509;28;20207;-56
2022/07/29 09:26:32;;;;;;;3.17;2.90;;;;;;;23.28;79.80;96610.94;5044740;28;20225;-55
2022/07/29 09:28:59;;;;;;;3.05;2.75;;;;;;;23.50;81.49;96619.47;5043596;28;20586;-56
2022/07/29 09:31:35;;;;;;;3.03;2.83;;;;;;;23.27;88.32;96612.03;5043264;28;20199;-56
2022/07/29 09:34:02;;;;;;;3.17;2.78;;;;;;;23.17;83.85;96606.28;5042185;28;20202;-56
2022/07/29 09:36:29;;;;;;;2.80;2.60;;;;;;;23.23;84.01;96603.53;5044550;28;20294;-56
2022/07/29 09:38:59;;;;;;;4.43;2.70;;;;;;;23.21;87.73;96611.03;5042730;28;20270;-55
2022/07/29 09:41:26;;;;;;;3.15;2.80;;;;;;;23.20;83.98;96609.38;5044313;28;20254;-56
2022/07/29 09:43:58;;;;;;;2.40;2.30;;;;;;;23.16;81.40;96604.66;5043586;28;20207;-56
2022/07/29 09:46:26;;;;;;;4.95;2.95;;;;;;;23.25;85.20;96597.91;5043680;28;20310;-56
2022/07/29 09:49:11;;;;;;;3.03;2.83;;;;;;;23.18;81.30;96599.84;5044143;28;20231;-56
2022/07/29 09:51:37;;;;;;;2.85;2.70;;;;;;;23.26;82.45;96602.28;5046351;28;20558;-56
2022/07/29 09:54:22;;;;;;;2.80;2.60;;;;;;;23.29;82.34;96601.81;5043302;28;20227;-55
2022/07/29 09:56:49;;;;;;;3.03;2.47;;;;;;;23.58;81.94;96606.53;5043047;28;20656;-56
2022/07/29 09:59:17;;;;;;;2.92;2.70;;;;;;;23.87;79.15;96593.28;5043388;28;20594;-56
2022/07/29 10:01:44;;;;;;;3.35;2.75;;;;;;;24.06;77.21;96597.59;5043092;28;20200;-57
2022/07/29 10:04:11;;;;;;;2.92;2.72;;;;;;;24.45;74.68;96583.53;5043225;28;20206;-57
2022/07/29 10:06:56;;;;;;;3.13;2.83;;;;;;;24.66;72.48;96574.88;5043840;28;20255;-55
2022/07/29 10:09:26;;;;;;;2.95;2.78;;;;;;;24.46;71.87;96573.56;5043561;28;20235;-55
2022/07/29 10:12:07;;;;;;;2.92;2.72;;;;;;;24.36;68.06;96567.91;5043537;28;20300;-56
2022/07/29 10:14:36;;;;;;;2.65;2.45;;;;;;;24.72;70.72;96565.84;5042380;28;20636;-56
2022/07/29 10:17:03;;;;;;;3.35;3.15;;;;;;;24.86;71.48;96571.06;5043867;28;20210;-55
2022/07/29 10:19:31;;;;;;;3.58;3.08;;;;;;;24.98;68.11;96574.59;5045356;28;20207;-55
2022/07/29 10:21:58;;;;;;;3.60;3.15;;;;;;;25.22;69.80;96571.63;5044884;28;20597;-56
2022/07/29 10:24:26;;;;;;;3.17;2.80;;;;;;;25.19;68.07;96572.13;5043656;28;20296;-56
2022/07/29 10:26:55;;;;;;;2.97;2.80;;;;;;;25.19;68.95;96582.09;5042713;28;20228;-55
2022/07/29 10:29:21;;;;;;;4.03;3.03;;;;;;;25.07;69.04;96573.19;5043018;28;20239;-55
2022/07/29 10:31:57;;;;;;;3.67;2.80;;;;;;;25.15;70.80;96573.63;5042406;28;20252;-55
2022/07/29 10:34:31;;;;;;;2.85;2.65;;;;;;;25.16;68.72;96567.19;5042373;28;20229;-55
2022/07/29 10:37:08;;;;;;;3.03;2.65;;;;;;;25.34;70.94;96549.97;5041764;28;20634;-56
2022/07/29 10:39:44;;;;;;;3.22;2.92;;;;;;;25.56;66.15;96550.19;5042687;28;20876;-56
2022/07/29 10:42:18;;;;;;;2.83;2.63;;;;;;;25.78;62.57;96553.09;5042691;28;20265;-55
2022/07/29 10:44:45;;;;;;;2.60;2.40;;;;;;;26.17;64.29;96554.94;5042705;28;20249;-56
2022/07/29 10:47:22;;;;;;;4.63;2.90;;;;;;;26.45;59.99;96560.34;5042628;28;20307;-55
2022/07/29 10:49:58;;;;;;;8.82;3.05;;;;;;;26.55;60.73;96551.56;5041982;28;20286;-56
2022/07/29 10:52:27;;;;;;;3.08;2.30;;;;;;;26.82;61.28;96551.75;5043660;28;20214;-55
2022/07/29 10:54:54;;;;;;;3.00;2.80;;;;;;;26.97;63.31;96557.44;5041673;28;20284;-55
2022/07/29 10:57:25;;;;;;;3.03;2.83;;;;;;;26.96;60.12;96550.38;5042898;28;20210;-55
2022/07/29 10:59:54;;;;;;;3.22;3.00;;;;;;;26.79;58.47;96555.75;5041921;28;20242;-55
2022/07/29 11:02:44;;;;;;;3.17;2.70;;;;;;;26.53;59.21;96553.72;5041992;28;20213;-56
2022/07/29 11:05:12;;;;;;;3.33;2.65;;;;;;;26.37;62.68;96562.63;5042637;28;20223;-56
2022/07/29 11:07:41;;;;;;;3.05;2.85;;;;;;;26.10;59.85;96562.41;5041859;28;20326;-56
2022/07/29 11:10:24;;;;;;;3.03;2.83;;;;;;;25.98;63.62;96564.31;5042713;28;20269;-56
2022/07/29 11:12:52;;;;;;;2.97;2.78;;;;;;;25.77;64.76;96556.84;5043057;28;20201;-57
2022/07/29 11:15:20;;;;;;;3.20;2.88;;;;;;;25.59;65.98;96560.56;5042716;28;20704;-55
2022/07/29 11:18:09;;;;;;;3.20;3.00;;;;;;;25.62;66.29;96555.47;5041276;28;20218;-55
2022/07/29 11:20:41;;;;;;;2.67;2.53;;;;;;;25.56;66.73;96556.44;5041724;28;20196;-55
2022/07/29 11:23:23;;;;;;;2.70;2.42;;;;;;;25.62;67.63;96544.66;5042144;28;21695;-57
2022/07/29 11:26:14;;;;;;;2.88;2.67;;;;;;;25.83;67.20;96542.34;5042529;28;20210;-58
2022/07/29 11:28:56;;;;;;;2.30;2.20;;;;;;;26.09;68.01;96541.75;5042555;28;20231;-57
2022/07/29 11:31:38;;;;;;;4.75;3.30;;;;;;;26.17;66.03;96544.09;5042944;28;20203;-56
2022/07/29 11:34:19;;;;;;;3.13;2.90;;;;;;;26.16;63.73;96545.16;5041581;28;20195;-55
2022/07/29 11:37:17;;;;;;;3.25;2.60;;;;;;;26.03;60.44;96540.03;5041622;28;20195;-57
2022/07/29 11:39:46;;;;;;;3.50;2.50;;;;;;;26.04;61.01;96547.91;5041630;28;20235;-56
2022/07/29 11:42:41;;;;;;;3.22;2.17;;;;;;;26.01;59.56;96548.41;5041845;28;20203;-56
2022/07/29 11:45:09;;;;;;;5.50;2.80;;;;;;;26.05;60.03;96541.44;5042439;28;20673;-56